createdAt,value
2023-03-13T00:01:43.630Z,56.21
2023-03-13T00:04:11.459Z,55.17
2023-03-13T00:06:40.755Z,55.11
2023-03-13T00:09:10.285Z,54.73
2023-03-13T00:11:38.088Z,54.68
2023-03-13T00:14:07.245Z,56.56
2023-03-13T00:16:37.332Z,56.86
2023-03-13T00:19:07.746Z,57.41
2023-03-13T00:21:37.484Z,57.58
2023-03-13T00:24:05.753Z,58.54
2023-03-13T00:26:33.484Z,58.27
2023-03-13T00:29:01.320Z,57.01
2023-03-13T00:31:31.250Z,56.34
2023-03-13T00:34:00.925Z,57.86
2023-03-13T00:36:32.143Z,57.29
2023-03-13T00:39:00.647Z,58.74
2023-03-13T00:41:31.007Z,58.94
2023-03-13T00:43:59.610Z,58.79
2023-03-13T00:46:29.521Z,57.46
2023-03-13T00:48:57.600Z,59.22
2023-03-13T00:51:26.912Z,59.09
2023-03-13T00:53:56.654Z,59.73
2023-03-13T00:56:24.601Z,60.17
2023-03-13T00:58:52.676Z,60.21
2023-03-13T01:01:22.744Z,59.59
2023-03-13T01:03:52.568Z,60.90
2023-03-13T01:06:22.833Z,62.33
2023-03-13T01:08:50.697Z,63.15
2023-03-13T01:11:22.456Z,63.89
2023-03-13T01:13:51.283Z,64.14
2023-03-13T01:16:21.837Z,63.02
2023-03-13T01:18:51.489Z,64.66
2023-03-13T01:21:21.165Z,65.06
2023-03-13T01:23:49.974Z,65.03
2023-03-13T01:26:19.670Z,65.28
2023-03-13T01:28:47.453Z,65.54
2023-03-13T01:31:20.154Z,66.43
2023-03-13T01:33:49.962Z,67.56
2023-03-13T01:36:18.964Z,64.52
2023-03-13T01:38:49.733Z,65.09
2023-03-13T01:41:20.492Z,65.88
2023-03-13T01:43:48.354Z,66.44
2023-03-13T01:46:18.517Z,65.25
2023-03-13T01:49:08.155Z,64.25
2023-03-13T01:51:46.669Z,62.42
2023-03-13T01:54:17.835Z,65.34
2023-03-13T01:56:50.921Z,67.61
2023-03-13T01:59:23.271Z,69.69
2023-03-13T02:01:54.251Z,69.06
2023-03-13T02:04:24.008Z,67.32
2023-03-13T02:06:57.615Z,67.83
2023-03-13T02:09:30.514Z,68.40
2023-03-13T02:12:05.480Z,69.04
2023-03-13T02:14:36.744Z,68.96
2023-03-13T02:17:06.605Z,70.80
2023-03-13T02:19:41.018Z,72.24
2023-03-13T02:22:17.908Z,74.41
2023-03-13T02:24:55.882Z,76.62
2023-03-13T02:27:25.716Z,76.21
2023-03-13T02:29:54.188Z,74.85
2023-03-13T02:32:23.329Z,76.97
2023-03-13T02:34:55.395Z,78.13
2023-03-13T02:37:26.162Z,80.23
2023-03-13T02:39:55.513Z,81.60
2023-03-13T02:42:26.220Z,81.15
2023-03-13T02:44:53.986Z,82.02
2023-03-13T02:47:23.453Z,81.04
2023-03-13T02:49:51.979Z,81.28
2023-03-13T02:52:24.927Z,80.33
2023-03-13T02:54:56.705Z,80.29
2023-03-13T02:57:25.852Z,80.64
2023-03-13T02:59:53.625Z,80.62
2023-03-13T03:02:21.447Z,81.60
2023-03-13T03:04:49.318Z,84.83
2023-03-13T03:07:17.188Z,85.00
2023-03-13T03:09:45.429Z,82.50
2023-03-13T03:12:18.526Z,77.00
2023-03-13T03:14:48.186Z,76.86
2023-03-13T03:17:16.878Z,76.75
2023-03-13T03:19:44.612Z,79.09
2023-03-13T03:22:12.406Z,75.60
2023-03-13T03:24:40.172Z,78.58
2023-03-13T03:27:08.013Z,81.24
2023-03-13T03:29:42.351Z,83.43
2023-03-13T03:32:11.663Z,76.07
2023-03-13T03:34:39.469Z,82.29
2023-03-13T03:37:08.437Z,77.15
2023-03-13T03:39:36.685Z,80.14
2023-03-13T03:42:06.612Z,84.61
2023-03-13T03:44:34.458Z,82.38
2023-03-13T03:47:02.224Z,81.29
2023-03-13T03:49:36.036Z,84.72
2023-03-13T03:52:03.947Z,85.48
2023-03-13T03:54:36.594Z,86.18
2023-03-13T03:57:04.639Z,84.05
2023-03-13T03:59:32.561Z,83.57
2023-03-13T04:02:05.537Z,84.74
2023-03-13T04:04:35.800Z,85.32
2023-03-13T04:07:08.402Z,84.65
2023-03-13T04:09:36.458Z,84.78
2023-03-13T04:12:07.479Z,84.14
2023-03-13T04:14:39.672Z,82.87
2023-03-13T04:17:09.913Z,80.54
2023-03-13T04:19:39.374Z,81.75
2023-03-13T04:22:07.957Z,82.38
2023-03-13T04:24:36.065Z,82.42
2023-03-13T04:27:06.471Z,81.66
2023-03-13T04:29:34.913Z,82.83
2023-03-13T04:32:21.958Z,77.93
2023-03-13T04:35:03.249Z,79.53
2023-03-13T04:37:37.231Z,82.81
2023-03-13T04:40:23.445Z,84.83
2023-03-13T04:42:57.018Z,85.55
2023-03-13T04:45:43.486Z,85.23
2023-03-13T04:49:08.816Z,83.01
2023-03-13T04:52:00.705Z,83.86
2023-03-13T04:54:52.739Z,85.18
2023-03-13T04:57:40.460Z,85.93
2023-03-13T05:00:28.507Z,86.11
2023-03-13T05:03:14.225Z,85.33
2023-03-13T05:06:02.307Z,85.99
2023-03-13T05:08:57.752Z,85.38
2023-03-13T05:11:43.746Z,87.48
2023-03-13T05:14:37.811Z,87.19
2023-03-13T05:17:23.934Z,87.10
2023-03-13T05:19:58.686Z,87.25
2023-03-13T05:22:45.139Z,87.43
2023-03-13T05:25:23.222Z,85.18
2023-03-13T05:28:26.554Z,86.54
2023-03-13T05:31:29.661Z,85.68
2023-03-13T05:33:57.396Z,85.02
2023-03-13T05:36:43.695Z,84.78
2023-03-13T05:39:33.653Z,84.57
2023-03-13T05:42:23.084Z,85.36
2023-03-13T05:45:10.612Z,84.07
2023-03-13T05:47:58.870Z,81.70
2023-03-13T05:50:38.499Z,77.85
2023-03-13T05:53:26.585Z,75.37
2023-03-13T05:56:14.630Z,79.83
2023-03-13T05:58:52.334Z,79.86
2023-03-13T06:01:46.135Z,81.63
2023-03-13T06:04:26.674Z,83.43
2023-03-13T06:06:54.958Z,83.90
2023-03-13T06:09:23.061Z,84.67
2023-03-13T06:11:51.708Z,84.81
2023-03-13T06:14:21.939Z,83.63
2023-03-13T06:17:19.087Z,80.67
2023-03-13T06:19:47.789Z,76.67
2023-03-13T06:22:17.382Z,80.13
2023-03-13T06:24:46.795Z,81.71
2023-03-13T06:27:14.627Z,80.69
2023-03-13T06:29:43.868Z,74.83
2023-03-13T06:32:11.717Z,80.07
2023-03-13T06:34:39.624Z,81.06
2023-03-13T06:37:07.377Z,78.63
2023-03-13T06:39:35.139Z,76.39
2023-03-13T06:42:02.984Z,76.54
2023-03-13T06:44:30.788Z,76.83
2023-03-13T06:46:59.916Z,76.70
2023-03-13T06:49:27.781Z,75.04
2023-03-13T06:51:58.362Z,74.87
2023-03-13T06:54:26.142Z,74.43
2023-03-13T06:56:53.908Z,72.66
2023-03-13T06:59:21.664Z,70.07
2023-03-13T07:01:49.406Z,70.30
2023-03-13T07:04:18.779Z,74.12
2023-03-13T07:06:46.664Z,76.01
2023-03-13T07:09:14.508Z,75.52
2023-03-13T07:11:42.227Z,73.67
2023-03-13T07:14:16.891Z,73.38
2023-03-13T07:16:46.168Z,74.11
2023-03-13T07:19:14.319Z,74.77
2023-03-13T07:21:44.053Z,74.58
2023-03-13T07:24:12.110Z,74.89
2023-03-13T07:26:42.742Z,74.38
2023-03-13T07:29:16.373Z,74.00
2023-03-13T07:31:44.115Z,73.91
2023-03-13T07:34:11.895Z,73.19
2023-03-13T07:36:41.519Z,72.42
2023-03-13T07:39:10.831Z,65.07
2023-03-13T07:41:39.980Z,61.36
2023-03-13T07:44:07.852Z,62.57
2023-03-13T07:46:35.871Z,62.97
2023-03-13T07:49:03.824Z,61.57
2023-03-13T07:51:42.869Z,64.62
2023-03-13T07:54:13.010Z,62.90
2023-03-13T07:56:40.832Z,63.31
2023-03-13T07:59:09.389Z,62.59
2023-03-13T08:01:37.502Z,65.00
2023-03-13T08:04:05.931Z,60.17
2023-03-13T08:06:35.559Z,59.12
2023-03-13T08:09:05.089Z,59.03
2023-03-13T08:11:34.329Z,63.13
2023-03-13T08:14:02.092Z,60.21
2023-03-13T08:16:32.236Z,57.99
2023-03-13T08:19:00.815Z,58.24
2023-03-13T08:21:30.196Z,61.80
2023-03-13T08:23:59.995Z,63.48
2023-03-13T08:26:30.117Z,63.60
2023-03-13T08:29:01.515Z,63.19
2023-03-13T08:31:31.273Z,63.17
2023-03-13T08:33:59.499Z,63.33
2023-03-13T08:36:29.383Z,62.67
2023-03-13T08:39:01.734Z,62.12
2023-03-13T08:41:32.203Z,62.19
2023-03-13T08:44:01.826Z,58.65
2023-03-13T08:46:31.141Z,61.23
2023-03-13T08:48:59.197Z,61.23
2023-03-13T08:51:29.272Z,59.33
2023-03-13T08:53:57.619Z,60.88
2023-03-13T08:56:27.927Z,61.91
2023-03-13T08:58:56.955Z,62.56
2023-03-13T09:01:27.683Z,62.11
2023-03-13T09:03:56.074Z,59.87
2023-03-13T09:06:24.288Z,59.11
2023-03-13T09:08:52.136Z,59.82
2023-03-13T09:11:21.483Z,59.82
2023-03-13T09:13:51.367Z,60.84
2023-03-13T09:16:21.455Z,61.66
2023-03-13T09:18:51.363Z,61.14
2023-03-13T09:21:20.874Z,61.74
2023-03-13T09:23:49.044Z,60.98
2023-03-13T09:26:17.949Z,61.65
2023-03-13T09:28:45.851Z,61.18
2023-03-13T09:31:15.871Z,60.33
2023-03-13T09:33:44.348Z,59.99
2023-03-13T09:36:13.903Z,58.73
2023-03-13T09:38:42.040Z,58.38
2023-03-13T09:41:33.796Z,56.24
2023-03-13T09:44:06.899Z,55.90
2023-03-13T09:46:40.818Z,55.79
2023-03-13T09:49:18.297Z,49.84
2023-03-13T09:51:52.047Z,50.56
2023-03-13T09:54:26.996Z,51.81
2023-03-13T09:56:58.381Z,53.15
2023-03-13T09:59:33.973Z,54.64
2023-03-13T10:02:05.225Z,55.41
2023-03-13T10:04:41.737Z,55.55
2023-03-13T10:07:13.738Z,54.49
2023-03-13T10:09:42.366Z,53.47
2023-03-13T10:12:18.121Z,52.55
2023-03-13T10:14:54.857Z,51.90
2023-03-13T10:17:32.273Z,53.05
2023-03-13T10:20:08.508Z,52.34
2023-03-13T10:22:39.053Z,52.14
2023-03-13T10:25:14.023Z,51.50
2023-03-13T10:27:45.922Z,51.48
2023-03-13T10:30:23.992Z,51.07
2023-03-13T10:32:51.921Z,49.83
2023-03-13T10:35:24.893Z,49.72
2023-03-13T10:38:04.780Z,47.88
2023-03-13T10:40:32.958Z,49.26
2023-03-13T10:43:07.438Z,47.80
2023-03-13T10:45:37.654Z,47.11
2023-03-13T10:48:13.532Z,46.72
2023-03-13T10:50:44.101Z,45.21
2023-03-13T10:53:25.463Z,45.73
2023-03-13T10:55:58.932Z,45.98
2023-03-13T10:58:34.391Z,46.17
2023-03-13T11:01:17.972Z,47.42
2023-03-13T11:03:46.785Z,47.48
2023-03-13T11:06:31.730Z,46.96
2023-03-13T11:09:13.951Z,44.53
2023-03-13T11:11:49.591Z,44.35
2023-03-13T11:14:20.218Z,45.28
2023-03-13T11:16:50.384Z,42.48
2023-03-13T11:19:34.294Z,41.85
2023-03-13T11:22:17.174Z,43.75
2023-03-13T11:24:55.738Z,43.45
2023-03-13T11:27:31.256Z,39.01
2023-03-13T11:30:15.411Z,41.41
2023-03-13T11:32:47.117Z,40.34
2023-03-13T11:35:28.843Z,42.25
2023-03-13T11:37:58.137Z,44.11
2023-03-13T11:40:33.049Z,41.27
2023-03-13T11:43:26.177Z,43.43
2023-03-13T11:46:09.475Z,43.17
2023-03-13T11:48:57.993Z,42.91
2023-03-13T11:51:29.208Z,41.85
2023-03-13T11:54:17.309Z,38.73
2023-03-13T11:56:51.928Z,40.03
2023-03-13T11:59:33.558Z,39.96
2023-03-13T12:02:08.392Z,40.43
2023-03-13T12:04:40.878Z,39.86
2023-03-13T12:07:26.472Z,39.17
2023-03-13T12:09:57.730Z,38.53
2023-03-13T12:12:38.765Z,40.45
2023-03-13T12:15:20.602Z,37.17
2023-03-13T12:17:54.955Z,39.45
2023-03-13T12:20:26.775Z,39.29
2023-03-13T12:23:01.976Z,36.71
2023-03-13T12:25:34.335Z,37.54
2023-03-13T12:28:12.710Z,31.85
2023-03-13T12:30:44.926Z,31.71
2023-03-13T12:33:23.636Z,33.35
2023-03-13T12:35:58.319Z,36.54
2023-03-13T12:38:32.300Z,37.30
2023-03-13T12:41:11.822Z,36.09
2023-03-13T12:43:57.202Z,32.21
2023-03-13T12:46:43.642Z,33.49
2023-03-13T12:49:28.570Z,37.19
2023-03-13T12:52:13.913Z,34.24
2023-03-13T12:55:05.332Z,32.80
2023-03-13T12:58:06.612Z,29.99
2023-03-13T13:00:40.168Z,27.63
2023-03-13T13:03:19.583Z,29.12
2023-03-13T13:06:03.076Z,30.37
2023-03-13T13:08:35.976Z,36.15
2023-03-13T13:11:41.455Z,37.71
2023-03-13T13:14:59.609Z,34.71
2023-03-13T13:17:41.313Z,38.89
2023-03-13T13:20:37.639Z,36.56
2023-03-13T13:23:33.860Z,38.99
2023-03-13T13:26:47.345Z,39.16
2023-03-13T13:29:59.981Z,38.14
2023-03-13T13:32:41.659Z,39.86
2023-03-13T13:35:36.785Z,36.38
2023-03-13T13:38:40.246Z,36.32
2023-03-13T13:41:28.025Z,37.76
2023-03-13T13:44:25.552Z,37.91
2023-03-13T13:46:55.735Z,35.87
2023-03-13T13:49:31.337Z,37.05
2023-03-13T13:52:36.464Z,37.84
2023-03-13T13:55:20.553Z,38.32
2023-03-13T13:57:51.205Z,40.44
2023-03-13T14:00:22.746Z,38.36
2023-03-13T14:02:52.944Z,36.87
2023-03-13T14:05:24.370Z,38.42
2023-03-13T14:08:04.378Z,39.42
2023-03-13T14:10:38.762Z,40.20
2023-03-13T14:13:13.765Z,38.93
2023-03-13T14:15:46.872Z,38.47
2023-03-13T14:18:21.752Z,40.14
2023-03-13T14:20:58.933Z,41.19
2023-03-13T14:23:33.639Z,41.46
2023-03-13T14:26:11.584Z,42.99
2023-03-13T14:28:41.529Z,42.42
2023-03-13T14:31:09.751Z,42.27
2023-03-13T14:33:37.615Z,41.41
2023-03-13T14:36:07.458Z,42.55
2023-03-13T14:38:35.377Z,41.94
2023-03-13T14:41:03.415Z,42.04
2023-03-13T14:43:36.005Z,43.13
2023-03-13T14:46:15.794Z,40.79
2023-03-13T14:48:44.013Z,39.80
2023-03-13T14:51:22.462Z,40.80
2023-03-13T14:53:58.222Z,41.76
2023-03-13T14:56:34.762Z,43.68
2023-03-13T14:59:16.577Z,43.20
2023-03-13T15:01:44.659Z,43.62
2023-03-13T15:04:12.566Z,44.06
2023-03-13T15:06:41.778Z,43.86
2023-03-13T15:09:18.918Z,44.53
2023-03-13T15:11:58.993Z,45.41
2023-03-13T15:14:41.578Z,45.16
2023-03-13T15:17:19.149Z,45.44
2023-03-13T15:19:51.803Z,45.84
2023-03-13T15:22:26.984Z,45.72
2023-03-13T15:25:05.712Z,45.77
2023-03-13T15:27:34.580Z,45.58
2023-03-13T15:30:02.324Z,46.37
2023-03-13T15:32:32.048Z,46.56
2023-03-13T15:35:01.723Z,46.29
2023-03-13T15:37:31.843Z,46.07
2023-03-13T15:39:59.844Z,45.73
2023-03-13T15:42:27.619Z,46.16
2023-03-13T15:44:55.398Z,45.49
2023-03-13T15:47:23.343Z,45.32
2023-03-13T15:49:51.186Z,45.38
2023-03-13T15:52:22.464Z,45.58
2023-03-13T15:54:52.859Z,45.21
2023-03-13T15:57:23.938Z,44.36
2023-03-13T15:59:52.313Z,44.04
2023-03-13T16:02:21.727Z,43.71
2023-03-13T16:04:49.667Z,42.88
2023-03-13T16:07:19.782Z,41.93
2023-03-13T16:09:48.359Z,42.13
2023-03-13T16:12:17.677Z,41.57
2023-03-13T16:14:45.547Z,41.74
2023-03-13T16:17:16.240Z,39.49
2023-03-13T16:19:44.230Z,40.53
2023-03-13T16:22:12.103Z,40.93
2023-03-13T16:24:39.882Z,41.82
2023-03-13T16:27:13.929Z,42.31
2023-03-13T16:29:43.145Z,41.62
2023-03-13T16:32:13.902Z,41.09
2023-03-13T16:34:42.926Z,42.27
2023-03-13T16:37:14.666Z,42.87
2023-03-13T16:39:42.551Z,43.99
2023-03-13T16:42:10.762Z,44.38
2023-03-13T16:44:39.350Z,44.40
2023-03-13T16:47:28.513Z,45.58
2023-03-13T16:49:56.504Z,46.07
2023-03-13T16:52:24.252Z,48.07
2023-03-13T16:54:52.033Z,47.66
2023-03-13T16:57:24.435Z,49.36
2023-03-13T16:59:52.236Z,48.88
2023-03-13T17:02:21.846Z,48.68
2023-03-13T17:04:49.635Z,47.34
2023-03-13T17:07:20.661Z,48.06
2023-03-13T17:09:48.718Z,47.94
2023-03-13T17:12:16.530Z,48.00
2023-03-13T17:14:44.371Z,47.60
2023-03-13T17:17:14.402Z,47.23
2023-03-13T17:19:43.514Z,47.50
2023-03-13T17:22:13.606Z,48.27
2023-03-13T17:24:41.696Z,48.20
2023-03-13T17:27:13.244Z,47.84
2023-03-13T17:29:41.538Z,48.07
2023-03-13T17:32:11.071Z,49.52
2023-03-13T17:34:38.883Z,48.73
2023-03-13T17:37:14.957Z,48.90
2023-03-13T17:39:43.295Z,48.91
2023-03-13T17:42:11.438Z,48.90
2023-03-13T17:44:41.093Z,48.13
2023-03-13T17:47:14.062Z,48.66
2023-03-13T17:49:41.902Z,48.16
2023-03-13T17:52:14.852Z,47.78
2023-03-13T17:54:43.196Z,47.54
2023-03-13T17:57:16.179Z,47.91
2023-03-13T17:59:44.518Z,48.26
2023-03-13T18:02:13.730Z,48.11
2023-03-13T18:04:42.286Z,47.98
2023-03-13T18:07:24.626Z,47.82
2023-03-13T18:09:52.735Z,47.55
2023-03-13T18:12:20.973Z,47.82
2023-03-13T18:14:48.713Z,47.91
2023-03-13T18:17:18.764Z,48.14
2023-03-13T18:19:46.934Z,48.21
2023-03-13T18:22:16.570Z,48.38
2023-03-13T18:24:46.488Z,47.79
2023-03-13T18:27:16.394Z,48.28
2023-03-13T18:29:45.085Z,48.55
2023-03-13T18:32:14.567Z,48.45
2023-03-13T18:34:42.885Z,48.65
2023-03-13T18:37:20.904Z,48.79
2023-03-13T18:39:51.269Z,49.21
2023-03-13T18:42:19.783Z,49.77
2023-03-13T18:44:47.584Z,49.13
2023-03-13T18:47:17.497Z,49.25
2023-03-13T18:49:45.348Z,49.97
2023-03-13T18:52:13.289Z,50.12
2023-03-13T18:54:41.443Z,50.27
2023-03-13T18:57:14.460Z,50.10
2023-03-13T18:59:42.771Z,50.17
2023-03-13T19:02:14.701Z,50.87
2023-03-13T19:04:42.923Z,50.96
2023-03-13T19:07:16.604Z,50.30
2023-03-13T19:09:46.770Z,50.78
2023-03-13T19:12:16.575Z,51.06
2023-03-13T19:14:44.828Z,50.32
2023-03-13T19:17:21.279Z,49.99
2023-03-13T19:19:49.036Z,50.74
2023-03-13T19:22:16.814Z,49.60
2023-03-13T19:24:44.739Z,49.83
2023-03-13T19:27:16.898Z,49.73
2023-03-13T19:29:47.006Z,49.74
2023-03-13T19:32:16.292Z,49.43
2023-03-13T19:34:44.254Z,49.99
2023-03-13T19:37:12.389Z,50.28
2023-03-13T19:39:40.143Z,50.32
2023-03-13T19:42:08.183Z,49.91
2023-03-13T19:44:36.548Z,50.64
2023-03-13T19:47:06.503Z,51.85
2023-03-13T19:49:34.625Z,50.46
2023-03-13T19:52:02.421Z,51.75
2023-03-13T19:54:30.153Z,50.68
2023-03-13T19:56:58.584Z,51.99
2023-03-13T19:59:28.179Z,50.24
2023-03-13T20:01:56.437Z,50.12
2023-03-13T20:04:25.732Z,50.68
2023-03-13T20:06:53.453Z,50.66
2023-03-13T20:09:21.423Z,50.09
2023-03-13T20:11:49.495Z,50.11
2023-03-13T20:14:17.467Z,49.72
2023-03-13T20:16:47.339Z,50.50
2023-03-13T20:19:15.223Z,49.99
2023-03-13T20:21:44.323Z,50.52
2023-03-13T20:24:12.086Z,50.00
2023-03-13T20:26:39.902Z,50.35
2023-03-13T20:29:07.626Z,50.92
2023-03-13T20:31:35.450Z,51.46
2023-03-13T20:34:03.317Z,51.75
2023-03-13T20:36:31.055Z,51.47
2023-03-13T20:39:00.149Z,51.05
2023-03-13T20:41:31.048Z,51.89
2023-03-13T20:43:59.086Z,51.28
2023-03-13T20:46:27.006Z,51.45
2023-03-13T20:48:55.846Z,51.81
2023-03-13T20:51:25.190Z,52.44
2023-03-13T20:53:52.965Z,51.67
2023-03-13T20:56:22.060Z,52.13
2023-03-13T20:58:49.800Z,52.48
2023-03-13T21:01:19.529Z,51.50
2023-03-13T21:03:47.472Z,51.82
2023-03-13T21:06:17.470Z,52.17
2023-03-13T21:08:46.597Z,51.85
2023-03-13T21:11:16.118Z,51.43
2023-03-13T21:13:45.750Z,51.15
2023-03-13T21:16:14.032Z,50.25
2023-03-13T21:18:41.886Z,50.97
2023-03-13T21:21:12.503Z,51.00
2023-03-13T21:23:40.356Z,51.26
2023-03-13T21:26:08.303Z,50.94
2023-03-13T21:28:36.089Z,51.47
2023-03-13T21:31:11.620Z,50.84
2023-03-13T21:33:41.000Z,50.62
2023-03-13T21:36:10.051Z,51.07
2023-03-13T21:38:37.882Z,51.34
2023-03-13T21:41:09.290Z,51.33
2023-03-13T21:43:37.367Z,51.10
2023-03-13T21:46:05.537Z,51.57
2023-03-13T21:48:34.627Z,51.72
2023-03-13T21:51:02.415Z,51.99
2023-03-13T21:53:30.334Z,51.86
2023-03-13T21:55:58.118Z,52.16
2023-03-13T21:58:25.980Z,52.48
2023-03-13T22:00:54.797Z,51.71
2023-03-13T22:03:22.907Z,51.46
2023-03-13T22:05:52.046Z,53.36
2023-03-13T22:08:19.807Z,52.52
2023-03-13T22:10:51.331Z,52.27
2023-03-13T22:13:19.686Z,51.18
2023-03-13T22:15:50.415Z,52.15
2023-03-13T22:18:18.868Z,53.11
2023-03-13T22:20:46.576Z,52.52
2023-03-13T22:23:15.715Z,52.37
2023-03-13T22:25:45.678Z,52.62
2023-03-13T22:28:13.455Z,52.57
2023-03-13T22:30:41.629Z,52.60
2023-03-13T22:33:09.440Z,53.31
2023-03-13T22:35:38.829Z,54.88
2023-03-13T22:38:07.093Z,53.72
2023-03-13T22:40:36.172Z,53.34
2023-03-13T22:43:04.222Z,54.21
2023-03-13T22:45:33.986Z,53.98
2023-03-13T22:48:06.038Z,53.58
2023-03-13T22:50:33.991Z,53.95
2023-03-13T22:53:01.954Z,54.05
2023-03-13T22:55:29.855Z,54.25
2023-03-13T22:57:59.019Z,54.50
2023-03-13T23:00:26.953Z,54.50
2023-03-13T23:02:55.729Z,53.46
2023-03-13T23:05:23.607Z,53.86
2023-03-13T23:07:51.401Z,52.89
2023-03-13T23:10:19.835Z,53.40
2023-03-13T23:12:47.614Z,53.93
2023-03-13T23:15:16.846Z,53.62
2023-03-13T23:17:44.593Z,54.02
2023-03-13T23:20:13.836Z,54.73
2023-03-13T23:22:42.392Z,54.07
2023-03-13T23:25:11.336Z,54.46
2023-03-13T23:27:39.150Z,54.34
2023-03-13T23:30:19.295Z,54.61
2023-03-13T23:32:49.342Z,55.76
2023-03-13T23:35:17.863Z,54.87
2023-03-13T23:37:49.267Z,54.33
2023-03-13T23:40:17.195Z,54.76
2023-03-13T23:42:46.177Z,55.03
2023-03-13T23:45:14.146Z,55.16
2023-03-13T23:47:43.934Z,56.69
2023-03-13T23:50:14.191Z,56.52
2023-03-13T23:52:42.457Z,56.96
2023-03-13T23:55:11.161Z,56.59
2023-03-13T23:57:39.087Z,55.11
